Time;durP1;ratioP1;P1;durP2;ratioP2;P2;SDS_P1;SDS_P2;PMS_P1;PMS_P2;Temp;Humidity;BMP_temperature;BMP_pressure;BME280_temperature;BME280_humidity;BME280_pressure;Samples;Min_cycle;Max_cycle;Signal;HPM_P1;HPM_P2
2023/12/23 00:00:55;;;;;;;6.70;3.17;;;7.70;77.50;;;;;;5084524;28;20229;-61
2023/12/23 00:03:22;;;;;;;4.53;2.93;;;7.70;77.40;;;;;;5084707;28;20260;-62
2023/12/23 00:05:49;;;;;;;4.10;2.47;;;7.80;77.40;;;;;;5084803;28;20578;-62
2023/12/23 00:08:16;;;;;;;7.27;2.63;;;7.80;77.20;;;;;;5083904;28;20201;-62
2023/12/23 00:10:43;;;;;;;5.07;2.37;;;7.80;77.10;;;;;;5084283;28;20514;-61
2023/12/23 00:13:11;;;;;;;3.57;2.17;;;7.90;77.00;;;;;;5079995;28;20206;-61
2023/12/23 00:15:38;;;;;;;3.97;2.97;;;8.00;76.80;;;;;;5084170;28;20198;-61
2023/12/23 00:18:05;;;;;;;2.70;2.40;;;8.10;76.40;;;;;;5080439;28;20628;-62
2023/12/23 00:20:32;;;;;;;3.97;2.50;;;8.20;76.10;;;;;;5080137;28;20321;-61
2023/12/23 00:23:00;;;;;;;4.60;2.20;;;8.20;75.70;;;;;;5086827;28;20195;-62
2023/12/23 00:25:27;;;;;;;3.97;2.57;;;8.30;75.40;;;;;;5080997;28;20656;-61
2023/12/23 00:27:54;;;;;;;5.53;2.40;;;8.40;74.20;;;;;;5081154;28;20213;-61
2023/12/23 00:30:21;;;;;;;5.83;2.83;;;8.60;73.30;;;;;;5087727;28;20289;-61
2023/12/23 00:32:50;;;;;;;5.77;1.93;;;8.80;72.00;;;;;;5075307;28;20265;-62
2023/12/23 00:35:18;;;;;;;5.07;2.47;;;9.10;70.50;;;;;;5083393;28;20214;-61
2023/12/23 00:37:45;;;;;;;3.73;2.03;;;9.40;69.20;;;;;;5086926;28;20299;-62
2023/12/23 00:40:12;;;;;;;2.50;1.97;;;9.70;68.30;;;;;;5077497;28;20241;-62
2023/12/23 00:42:39;;;;;;;3.93;2.07;;;9.90;67.20;;;;;;5081246;28;20194;-62
2023/12/23 00:45:07;;;;;;;2.83;1.60;;;10.10;66.40;;;;;;5089655;28;20199;-62
2023/12/23 00:47:34;;;;;;;6.33;2.20;;;10.20;65.70;;;;;;5087193;28;20196;-62
2023/12/23 00:50:05;;;;;;;2.73;1.73;;;10.40;65.20;;;;;;5088779;28;20273;-62
2023/12/23 00:52:32;;;;;;;7.03;2.07;;;10.50;64.90;;;;;;5080866;28;20267;-62
2023/12/23 00:55:00;;;;;;;5.07;1.67;;;10.60;64.20;;;;;;5088024;28;20199;-61
2023/12/23 00:57:27;;;;;;;5.63;2.23;;;10.60;64.30;;;;;;5082063;28;20204;-62
2023/12/23 00:59:55;;;;;;;4.97;2.00;;;10.70;64.70;;;;;;5091007;28;20200;-62
2023/12/23 01:02:23;;;;;;;5.17;1.87;;;10.60;65.00;;;;;;5080561;28;20712;-62
2023/12/23 01:04:50;;;;;;;4.13;1.67;;;10.50;65.40;;;;;;5085709;28;20194;-62
2023/12/23 01:07:18;;;;;;;3.57;2.00;;;10.40;65.60;;;;;;5083425;28;20278;-62
2023/12/23 01:09:45;;;;;;;5.30;2.50;;;10.40;65.70;;;;;;5079318;28;20192;-62
2023/12/23 01:12:12;;;;;;;3.30;2.13;;;10.30;66.00;;;;;;5082493;28;20713;-62
2023/12/23 01:14:39;;;;;;;3.43;2.43;;;10.20;66.30;;;;;;5084630;28;20363;-62
2023/12/23 01:17:06;;;;;;;3.10;1.60;;;10.00;66.70;;;;;;5083364;28;20195;-62
2023/12/23 01:19:33;;;;;;;4.80;1.90;;;9.90;67.10;;;;;;5087304;28;20604;-62
2023/12/23 01:22:00;;;;;;;3.00;1.80;;;9.70;67.20;;;;;;5088069;28;20218;-62
2023/12/23 01:24:27;;;;;;;2.37;1.50;;;9.70;67.40;;;;;;5081338;28;20219;-62
2023/12/23 01:26:56;;;;;;;3.50;1.83;;;9.60;67.50;;;;;;5077679;28;20278;-62
2023/12/23 01:29:23;;;;;;;2.63;1.80;;;9.60;67.60;;;;;;5081449;28;20645;-62
2023/12/23 01:31:50;;;;;;;2.27;1.60;;;9.60;67.50;;;;;;5074041;28;20208;-62
2023/12/23 01:34:17;;;;;;;2.93;1.70;;;9.70;66.90;;;;;;5081446;28;20244;-62
2023/12/23 01:36:45;;;;;;;3.13;1.40;;;9.70;67.00;;;;;;5089829;28;20198;-62
2023/12/23 01:39:13;;;;;;;3.13;1.70;;;9.70;67.00;;;;;;5077365;28;20240;-62
2023/12/23 01:41:40;;;;;;;2.23;1.57;;;9.70;66.70;;;;;;5075556;28;20553;-62
2023/12/23 01:44:07;;;;;;;2.03;1.10;;;9.70;66.70;;;;;;5083582;28;20200;-62
2023/12/23 01:46:35;;;;;;;3.53;1.57;;;9.70;66.70;;;;;;5081361;28;20217;-62
2023/12/23 01:49:04;;;;;;;3.30;1.50;;;9.70;66.80;;;;;;5085880;28;20693;-62
2023/12/23 01:51:32;;;;;;;2.00;1.50;;;9.70;67.00;;;;;;5082967;28;20627;-62
2023/12/23 01:54:04;;;;;;;1.83;1.50;;;9.70;67.20;;;;;;5083917;28;20210;-62
2023/12/23 01:56:35;;;;;;;4.20;1.93;;;9.70;67.40;;;;;;5084908;28;20194;-62
2023/12/23 01:59:03;;;;;;;2.30;1.57;;;9.60;67.70;;;;;;5089809;28;20280;-62
2023/12/23 02:01:35;;;;;;;2.87;1.77;;;9.50;67.90;;;;;;5079301;28;20299;-62
2023/12/23 02:04:03;;;;;;;4.27;1.50;;;9.50;68.20;;;;;;5080229;28;20650;-62
2023/12/23 02:06:30;;;;;;;4.20;1.33;;;9.40;68.20;;;;;;5082029;28;20297;-62
2023/12/23 02:08:57;;;;;;;4.33;1.60;;;9.40;68.50;;;;;;5080055;28;20263;-62
2023/12/23 02:11:40;;;;;;;4.20;1.63;;;9.30;68.70;;;;;;5082359;28;20195;-61
2023/12/23 02:14:19;;;;;;;4.97;1.43;;;9.30;68.90;;;;;;5083486;28;20204;-62
2023/12/23 02:16:48;;;;;;;2.13;1.77;;;9.20;69.00;;;;;;5081089;28;20253;-62
2023/12/23 02:19:15;;;;;;;2.37;1.73;;;9.10;69.10;;;;;;5082480;28;20706;-62
2023/12/23 02:21:42;;;;;;;1.50;1.40;;;9.10;69.30;;;;;;5079992;28;20210;-62
2023/12/23 02:24:09;;;;;;;3.13;1.60;;;9.00;69.40;;;;;;5088132;28;20290;-62
2023/12/23 02:26:39;;;;;;;6.17;2.07;;;8.90;69.60;;;;;;5079878;28;20735;-62
2023/12/23 02:29:07;;;;;;;2.67;1.93;;;8.90;69.80;;;;;;5082428;28;20281;-62
2023/12/23 02:31:35;;;;;;;2.43;1.77;;;8.90;69.90;;;;;;5083426;28;20205;-62
2023/12/23 02:34:02;;;;;;;3.90;1.90;;;8.90;69.80;;;;;;5077279;28;20194;-62
2023/12/23 02:36:29;;;;;;;3.47;1.70;;;8.80;69.90;;;;;;5080093;28;20209;-62
2023/12/23 02:38:56;;;;;;;2.73;2.30;;;8.70;70.00;;;;;;5075963;28;20280;-62
2023/12/23 02:41:24;;;;;;;2.77;1.70;;;8.60;70.40;;;;;;5082932;28;20210;-62
2023/12/23 02:43:51;;;;;;;5.70;2.30;;;8.60;70.70;;;;;;5077952;28;20535;-61
2023/12/23 02:46:18;;;;;;;3.30;2.07;;;8.60;70.70;;;;;;5082891;28;20317;-61
2023/12/23 02:48:45;;;;;;;2.70;1.70;;;8.60;70.70;;;;;;5078335;28;20298;-62
2023/12/23 02:51:12;;;;;;;7.50;2.00;;;8.60;70.80;;;;;;5080306;28;20195;-61
2023/12/23 02:53:40;;;;;;;2.83;1.60;;;8.60;70.90;;;;;;5079977;28;20198;-62
2023/12/23 02:56:07;;;;;;;2.13;1.57;;;8.60;70.90;;;;;;5087670;28;20207;-62
2023/12/23 02:58:35;;;;;;;1.90;1.57;;;8.50;70.80;;;;;;5086744;28;20212;-62
2023/12/23 03:01:07;;;;;;;3.10;1.90;;;8.40;70.80;;;;;;5079128;28;20245;-62
2023/12/23 03:03:35;;;;;;;2.87;1.60;;;8.40;71.00;;;;;;5088519;28;20296;-62
2023/12/23 03:06:04;;;;;;;1.53;1.37;;;8.50;71.10;;;;;;5082614;28;20219;-61
2023/12/23 03:08:31;;;;;;;2.47;1.40;;;8.60;70.50;;;;;;5092295;28;20567;-62
2023/12/23 03:10:58;;;;;;;2.17;1.40;;;8.80;70.30;;;;;;5088025;28;20197;-62
2023/12/23 03:13:25;;;;;;;1.50;1.30;;;8.90;70.10;;;;;;5087112;28;20259;-62
2023/12/23 03:15:53;;;;;;;2.43;1.97;;;8.90;69.90;;;;;;5089987;28;20206;-62
2023/12/23 03:18:20;;;;;;;4.53;2.30;;;9.00;69.90;;;;;;5081986;28;20616;-62
2023/12/23 03:20:48;;;;;;;5.53;1.47;;;9.00;69.90;;;;;;5085877;28;20202;-62
2023/12/23 03:23:15;;;;;;;2.17;1.37;;;8.90;69.90;;;;;;5092765;28;20202;-62
2023/12/23 03:25:43;;;;;;;2.67;1.73;;;8.90;70.00;;;;;;5090498;28;20218;-62
2023/12/23 03:28:10;;;;;;;3.23;1.47;;;8.80;70.10;;;;;;5083310;28;20225;-61
2023/12/23 03:30:37;;;;;;;1.50;1.40;;;8.80;70.20;;;;;;5081530;28;20195;-61
2023/12/23 03:33:04;;;;;;;4.87;1.73;;;8.70;70.30;;;;;;5094824;28;20205;-61
2023/12/23 03:35:31;;;;;;;2.23;1.40;;;8.70;70.50;;;;;;5084769;28;20255;-62
2023/12/23 03:37:58;;;;;;;2.17;1.37;;;8.60;70.70;;;;;;5084791;28;20208;-62
2023/12/23 03:40:27;;;;;;;2.77;1.90;;;8.50;70.90;;;;;;5091715;28;20298;-62
2023/12/23 03:42:54;;;;;;;2.50;1.70;;;8.50;71.10;;;;;;5081237;28;20215;-62
2023/12/23 03:45:21;;;;;;;2.70;1.90;;;8.40;71.20;;;;;;5086373;28;20202;-62
2023/12/23 03:47:49;;;;;;;1.87;1.67;;;8.40;71.30;;;;;;5090377;28;20193;-62
2023/12/23 03:50:17;;;;;;;1.97;1.70;;;8.30;71.30;;;;;;5081764;28;20232;-61
2023/12/23 03:52:44;;;;;;;1.90;1.60;;;8.30;71.40;;;;;;5079124;28;20196;-61
2023/12/23 03:55:12;;;;;;;1.87;1.40;;;8.30;71.40;;;;;;5088798;28;20208;-61
2023/12/23 03:57:39;;;;;;;5.17;2.27;;;8.30;71.50;;;;;;5086069;28;20204;-61
2023/12/23 04:00:06;;;;;;;3.03;1.50;;;8.20;71.70;;;;;;5087950;28;20201;-61
2023/12/23 04:02:43;;;;;;;3.57;1.80;;;8.10;71.80;;;;;;5088001;28;20233;-61
2023/12/23 04:05:10;;;;;;;1.80;1.50;;;8.10;71.80;;;;;;5084317;28;20202;-62
2023/12/23 04:07:37;;;;;;;2.67;1.47;;;8.00;71.90;;;;;;5088726;28;20241;-62
2023/12/23 04:10:04;;;;;;;7.50;1.90;;;7.90;72.20;;;;;;5082766;28;20197;-61
2023/12/23 04:12:31;;;;;;;2.10;1.50;;;7.90;72.30;;;;;;5087057;28;20287;-62
2023/12/23 04:14:59;;;;;;;2.50;1.60;;;7.90;72.30;;;;;;5085910;28;20232;-62
2023/12/23 04:17:28;;;;;;;1.53;1.40;;;7.90;72.40;;;;;;5087542;28;20662;-62
2023/12/23 04:19:55;;;;;;;1.40;1.30;;;7.90;72.50;;;;;;5080868;28;20292;-62
2023/12/23 04:22:22;;;;;;;3.93;1.90;;;7.90;72.60;;;;;;5082860;28;20220;-62
2023/12/23 04:24:50;;;;;;;2.87;1.70;;;7.90;72.70;;;;;;5092260;28;20286;-61
2023/12/23 04:27:17;;;;;;;3.57;1.40;;;7.80;72.80;;;;;;5086563;28;20643;-61
2023/12/23 04:29:44;;;;;;;2.53;2.03;;;7.80;72.90;;;;;;5090484;28;20263;-61
2023/12/23 04:32:11;;;;;;;4.93;1.80;;;7.80;73.10;;;;;;5078081;28;20197;-62
2023/12/23 04:34:39;;;;;;;1.93;1.57;;;7.80;73.20;;;;;;5084357;28;20540;-62
2023/12/23 04:37:06;;;;;;;2.97;1.70;;;7.80;73.30;;;;;;5077673;28;20202;-62
2023/12/23 04:39:33;;;;;;;3.63;1.90;;;7.80;73.40;;;;;;5074146;28;20219;-61
2023/12/23 04:42:02;;;;;;;1.77;1.27;;;7.70;73.50;;;;;;5080517;28;20728;-61
2023/12/23 04:44:30;;;;;;;2.53;1.60;;;7.60;73.60;;;;;;5086312;28;20206;-62
2023/12/23 04:46:57;;;;;;;5.73;1.53;;;7.60;73.50;;;;;;5079209;28;20197;-62
2023/12/23 04:49:24;;;;;;;1.50;1.40;;;7.60;73.60;;;;;;5082946;28;20308;-61
2023/12/23 04:51:52;;;;;;;2.23;1.50;;;7.60;73.60;;;;;;5081892;28;20206;-62
2023/12/23 04:54:19;;;;;;;2.10;1.70;;;7.60;73.30;;;;;;5084563;28;20276;-62
2023/12/23 04:56:46;;;;;;;3.93;1.93;;;7.60;73.20;;;;;;5086214;28;20508;-62
2023/12/23 04:59:13;;;;;;;1.63;1.27;;;7.50;73.50;;;;;;5083220;28;20206;-61
2023/12/23 05:01:40;;;;;;;2.57;1.60;;;7.40;73.80;;;;;;5086417;28;20248;-61
2023/12/23 05:04:08;;;;;;;2.77;1.67;;;7.30;74.00;;;;;;5078839;28;20194;-61
2023/12/23 05:06:36;;;;;;;3.47;1.50;;;7.20;74.10;;;;;;5081311;28;20277;-61
2023/12/23 05:09:05;;;;;;;3.80;1.70;;;7.10;74.40;;;;;;5083981;28;20191;-62
2023/12/23 05:11:33;;;;;;;2.50;1.60;;;7.10;74.40;;;;;;5084077;28;20202;-62
2023/12/23 05:14:00;;;;;;;2.77;1.33;;;7.00;74.60;;;;;;5081895;28;20211;-62
2023/12/23 05:16:27;;;;;;;1.97;1.30;;;7.00;74.80;;;;;;5063298;28;20302;-61
2023/12/23 05:18:55;;;;;;;1.50;1.30;;;7.00;75.10;;;;;;5088688;28;20561;-61
2023/12/23 05:21:23;;;;;;;1.20;1.10;;;7.00;75.20;;;;;;5085544;28;20295;-61
2023/12/23 05:23:50;;;;;;;2.00;1.10;;;7.00;75.20;;;;;;5085436;28;20295;-61
2023/12/23 05:26:20;;;;;;;2.30;1.17;;;7.10;75.10;;;;;;5081733;28;20209;-62
2023/12/23 05:28:48;;;;;;;4.73;1.27;;;7.30;74.80;;;;;;5083875;28;20205;-62
2023/12/23 05:31:15;;;;;;;3.00;1.60;;;7.40;74.40;;;;;;5082883;28;20212;-61
2023/12/23 05:33:42;;;;;;;3.30;2.13;;;7.50;73.80;;;;;;5082582;28;20206;-61
2023/12/23 05:36:10;;;;;;;3.23;2.30;;;7.50;73.40;;;;;;5079988;28;20204;-61
2023/12/23 05:38:37;;;;;;;3.17;2.23;;;7.50;73.40;;;;;;5076230;28;20518;-62
2023/12/23 05:41:04;;;;;;;3.63;2.17;;;7.40;73.60;;;;;;5079462;28;20273;-62
2023/12/23 05:43:31;;;;;;;2.67;2.00;;;7.30;73.90;;;;;;5077242;28;20581;-62
2023/12/23 05:45:58;;;;;;;2.97;2.20;;;7.20;74.30;;;;;;5079383;28;20197;-62
2023/12/23 05:48:26;;;;;;;2.93;1.90;;;7.10;74.40;;;;;;5080069;28;20250;-62
2023/12/23 05:50:53;;;;;;;2.50;2.10;;;7.10;74.50;;;;;;5088279;28;20198;-61
2023/12/23 05:53:20;;;;;;;2.93;1.60;;;7.10;74.70;;;;;;5084370;28;20202;-61
2023/12/23 05:55:48;;;;;;;4.77;2.20;;;7.20;74.80;;;;;;5087151;28;20190;-61
2023/12/23 05:58:15;;;;;;;1.87;1.70;;;7.20;74.90;;;;;;5084667;28;20204;-61
2023/12/23 06:00:42;;;;;;;2.90;2.23;;;7.10;74.80;;;;;;5078560;28;20534;-61
2023/12/23 06:03:09;;;;;;;4.30;2.40;;;7.10;74.80;;;;;;5086985;28;20375;-62
2023/12/23 06:05:36;;;;;;;5.47;2.40;;;7.00;75.00;;;;;;5084770;28;20201;-61
2023/12/23 06:08:04;;;;;;;2.27;1.80;;;6.90;75.00;;;;;;5077495;28;20197;-61
2023/12/23 06:10:31;;;;;;;6.00;2.80;;;6.80;75.30;;;;;;5082038;28;20234;-62
2023/12/23 06:13:09;;;;;;;3.23;2.50;;;6.80;76.00;;;;;;5082074;28;20211;-62
2023/12/23 06:15:36;;;;;;;3.87;2.17;;;6.80;76.10;;;;;;5084421;28;20201;-61
2023/12/23 06:18:04;;;;;;;2.50;2.00;;;6.90;76.10;;;;;;5082920;28;20210;-61
2023/12/23 06:20:31;;;;;;;3.97;2.03;;;6.90;76.10;;;;;;5082573;28;20204;-61
2023/12/23 06:22:58;;;;;;;4.90;2.13;;;7.00;76.10;;;;;;5079354;28;20209;-61
2023/12/23 06:25:25;;;;;;;5.60;2.00;;;7.00;76.20;;;;;;5081447;28;20312;-61
2023/12/23 06:27:52;;;;;;;3.63;2.37;;;7.10;76.30;;;;;;5082277;28;20680;-61
2023/12/23 06:30:19;;;;;;;1.93;1.80;;;7.10;76.30;;;;;;5077184;28;20599;-61
2023/12/23 06:32:46;;;;;;;4.70;2.10;;;7.20;76.30;;;;;;5080861;28;20232;-62
2023/12/23 06:35:14;;;;;;;3.00;2.10;;;7.30;76.20;;;;;;5076386;28;20210;-62
2023/12/23 06:37:41;;;;;;;2.87;1.83;;;7.30;76.10;;;;;;5083750;28;20548;-62
2023/12/23 06:40:08;;;;;;;3.97;2.23;;;7.40;76.00;;;;;;5091042;28;20211;-61
2023/12/23 06:42:35;;;;;;;4.60;2.10;;;7.50;75.80;;;;;;5091169;28;20312;-61
2023/12/23 06:45:03;;;;;;;3.50;1.93;;;7.60;75.60;;;;;;5085078;28;20208;-61
2023/12/23 06:47:30;;;;;;;4.77;1.80;;;7.70;75.10;;;;;;5083538;28;20224;-61
2023/12/23 06:49:57;;;;;;;3.67;1.90;;;7.80;74.80;;;;;;5085083;28;20239;-61
2023/12/23 06:52:24;;;;;;;2.07;1.73;;;7.90;74.70;;;;;;5086012;28;20201;-62
2023/12/23 06:54:52;;;;;;;3.77;2.30;;;7.90;74.50;;;;;;5083006;28;20266;-61
2023/12/23 06:57:19;;;;;;;2.50;1.80;;;8.00;73.90;;;;;;5084913;28;20211;-63
2023/12/23 06:59:46;;;;;;;3.73;1.57;;;8.20;73.60;;;;;;5081595;28;20213;-62
2023/12/23 07:02:13;;;;;;;3.07;1.87;;;8.20;73.50;;;;;;5087293;28;20241;-61
2023/12/23 07:04:42;;;;;;;2.57;1.70;;;8.30;73.50;;;;;;5083386;28;20262;-62
2023/12/23 07:07:10;;;;;;;5.77;1.77;;;8.30;73.20;;;;;;5083532;28;20198;-61
2023/12/23 07:09:37;;;;;;;3.67;1.90;;;8.40;73.30;;;;;;5084512;28;20864;-61
2023/12/23 07:12:05;;;;;;;3.30;2.00;;;8.40;73.30;;;;;;5087310;28;20201;-61
2023/12/23 07:14:32;;;;;;;2.13;1.73;;;8.50;73.20;;;;;;5083723;28;20198;-62
2023/12/23 07:16:59;;;;;;;6.10;3.73;;;8.50;73.20;;;;;;5083900;28;20289;-62
2023/12/23 07:19:26;;;;;;;3.70;2.27;;;8.50;73.20;;;;;;5083984;28;20193;-62
2023/12/23 07:21:53;;;;;;;4.40;1.90;;;8.50;73.30;;;;;;5086425;28;20315;-61
2023/12/23 07:24:20;;;;;;;4.47;2.23;;;8.40;73.40;;;;;;5083834;28;20227;-62
2023/12/23 07:26:48;;;;;;;6.13;2.13;;;8.40;73.60;;;;;;5079589;28;20560;-62
2023/12/23 07:29:16;;;;;;;3.17;2.27;;;8.30;73.70;;;;;;5085085;28;20202;-62
2023/12/23 07:31:43;;;;;;;2.77;2.43;;;8.20;73.90;;;;;;5083434;28;20202;-62
2023/12/23 07:34:11;;;;;;;2.77;2.20;;;8.20;74.20;;;;;;5080631;28;20515;-62
2023/12/23 07:36:38;;;;;;;7.00;2.43;;;8.20;74.40;;;;;;5087525;28;20201;-62
2023/12/23 07:39:05;;;;;;;5.20;2.10;;;8.20;74.80;;;;;;5078747;28;20198;-62
2023/12/23 07:41:32;;;;;;;3.63;2.00;;;8.20;75.00;;;;;;5086706;28;20628;-62
2023/12/23 07:44:39;;;;;;;2.37;2.10;;;8.20;75.20;;;;;;5081408;28;20630;-61
2023/12/23 07:47:06;;;;;;;3.20;2.47;;;8.20;75.20;;;;;;5087459;28;20531;-61
2023/12/23 07:49:33;;;;;;;4.40;2.23;;;8.30;75.30;;;;;;5084015;28;20932;-62
2023/12/23 07:52:05;;;;;;;4.77;2.17;;;8.40;75.30;;;;;;5080794;28;20220;-61
2023/12/23 07:54:33;;;;;;;3.67;1.93;;;8.40;75.30;;;;;;5085102;28;20194;-62
2023/12/23 07:57:00;;;;;;;4.00;2.00;;;8.50;75.30;;;;;;5081096;28;20205;-62
2023/12/23 07:59:27;;;;;;;2.77;2.07;;;8.50;75.30;;;;;;5082020;28;20551;-62
2023/12/23 08:01:54;;;;;;;3.30;2.00;;;8.60;75.60;;;;;;5085051;28;20218;-62
2023/12/23 08:04:22;;;;;;;3.20;2.00;;;8.60;75.70;;;;;;5086189;28;20205;-62
2023/12/23 08:06:49;;;;;;;3.70;2.27;;;8.70;76.20;;;;;;5086567;28;20205;-62
2023/12/23 08:09:16;;;;;;;4.20;2.80;;;8.80;76.70;;;;;;5085500;28;20203;-62
2023/12/23 08:11:43;;;;;;;4.83;2.60;;;8.90;76.90;;;;;;5086984;28;20199;-62
2023/12/23 08:14:11;;;;;;;3.23;2.30;;;9.00;77.20;;;;;;5082592;28;20200;-62
2023/12/23 08:16:38;;;;;;;5.70;2.37;;;9.10;78.00;;;;;;5077616;28;20530;-62
2023/12/23 08:19:05;;;;;;;4.67;2.40;;;9.20;77.40;;;;;;5082315;28;20201;-62
2023/12/23 08:21:32;;;;;;;5.03;2.10;;;9.20;77.40;;;;;;5084529;28;20222;-61
2023/12/23 08:24:03;;;;;;;3.60;2.00;;;9.30;77.50;;;;;;5085358;28;20215;-61
2023/12/23 08:26:31;;;;;;;3.70;2.60;;;9.40;77.50;;;;;;5080628;28;20273;-62
2023/12/23 08:28:58;;;;;;;5.27;2.47;;;9.40;77.60;;;;;;5081954;28;20203;-61
2023/12/23 08:31:26;;;;;;;7.30;2.57;;;9.50;77.90;;;;;;5081942;28;20213;-61
2023/12/23 08:33:53;;;;;;;5.93;2.63;;;9.60;78.10;;;;;;5081422;28;20208;-61
2023/12/23 08:36:20;;;;;;;3.60;2.23;;;9.70;78.30;;;;;;5080091;28;20195;-61
2023/12/23 08:38:47;;;;;;;5.00;2.77;;;9.80;78.30;;;;;;5079353;28;20216;-62
2023/12/23 08:41:14;;;;;;;4.87;2.57;;;9.90;78.20;;;;;;5078905;28;20210;-63
2023/12/23 08:43:42;;;;;;;7.47;2.80;;;10.00;78.20;;;;;;5085008;28;20213;-62
2023/12/23 08:46:09;;;;;;;2.20;2.00;;;10.10;78.00;;;;;;5076627;28;20531;-62
2023/12/23 08:48:37;;;;;;;5.70;2.33;;;10.20;78.00;;;;;;5077165;28;20204;-62
2023/12/23 08:51:04;;;;;;;7.07;2.43;;;10.30;77.40;;;;;;5079298;28;20605;-62
2023/12/23 08:53:31;;;;;;;3.13;2.20;;;10.40;76.90;;;;;;5085719;28;20213;-62
2023/12/23 08:55:58;;;;;;;6.60;2.03;;;10.50;76.40;;;;;;5080056;28;20211;-62
2023/12/23 08:58:26;;;;;;;5.87;2.70;;;10.60;75.80;;;;;;5080783;28;20230;-62
2023/12/23 09:00:53;;;;;;;2.20;1.70;;;10.80;74.90;;;;;;5079713;28;20214;-62
2023/12/23 09:03:20;;;;;;;4.33;1.60;;;10.90;74.70;;;;;;5082865;28;20531;-63
2023/12/23 09:05:47;;;;;;;2.67;2.10;;;11.10;74.20;;;;;;5083161;28;20205;-62
2023/12/23 09:08:15;;;;;;;3.30;2.20;;;11.30;73.60;;;;;;5079798;28;20208;-62
2023/12/23 09:10:42;;;;;;;2.83;1.80;;;11.50;73.10;;;;;;5082790;28;20200;-62
2023/12/23 09:13:09;;;;;;;2.97;1.87;;;11.60;72.60;;;;;;5081259;28;20224;-62
2023/12/23 09:15:37;;;;;;;3.57;2.20;;;11.80;71.10;;;;;;5083924;28;20200;-62
2023/12/23 09:18:05;;;;;;;4.40;2.17;;;12.00;70.00;;;;;;5081921;28;20205;-62
2023/12/23 09:20:32;;;;;;;5.17;2.30;;;12.20;68.80;;;;;;5082649;28;20216;-62
2023/12/23 09:23:00;;;;;;;2.60;1.90;;;12.40;69.40;;;;;;5083221;28;20320;-62
2023/12/23 09:25:27;;;;;;;3.60;1.80;;;12.60;69.60;;;;;;5082539;28;20213;-62
2023/12/23 09:27:54;;;;;;;6.10;2.10;;;12.70;70.00;;;;;;5079348;28;20199;-63
2023/12/23 09:30:21;;;;;;;4.57;3.20;;;12.90;70.10;;;;;;5079989;28;20199;-62
2023/12/23 09:32:49;;;;;;;6.00;3.07;;;13.00;70.40;;;;;;5085655;28;20286;-63
2023/12/23 09:35:16;;;;;;;5.43;2.77;;;13.10;71.10;;;;;;5083043;28;20266;-62
2023/12/23 09:37:45;;;;;;;4.13;2.97;;;13.10;71.40;;;;;;5084461;28;20216;-62
2023/12/23 09:40:13;;;;;;;8.83;3.47;;;13.20;71.70;;;;;;5078783;28;20200;-63
2023/12/23 09:42:41;;;;;;;4.13;2.90;;;13.20;71.50;;;;;;5082273;28;20242;-63
2023/12/23 09:45:11;;;;;;;2.97;2.23;;;13.20;71.40;;;;;;5077654;28;20238;-63
2023/12/23 09:47:38;;;;;;;4.23;2.70;;;13.20;71.30;;;;;;5078312;28;20216;-63
2023/12/23 09:50:06;;;;;;;6.07;2.93;;;13.30;71.30;;;;;;5076205;28;20204;-63
2023/12/23 09:52:34;;;;;;;5.30;2.73;;;13.30;71.00;;;;;;5082390;28;20619;-63
2023/12/23 09:55:05;;;;;;;5.13;2.83;;;13.40;70.90;;;;;;5083088;28;20216;-63
2023/12/23 09:57:34;;;;;;;5.40;3.30;;;13.40;70.20;;;;;;5083644;28;20201;-63
2023/12/23 10:00:02;;;;;;;7.17;3.60;;;13.50;71.00;;;;;;5079461;28;20209;-63
2023/12/23 10:02:37;;;;;;;6.83;2.67;;;13.60;70.30;;;;;;5078477;28;20247;-62
2023/12/23 10:05:04;;;;;;;3.03;2.20;;;13.70;70.20;;;;;;5081644;28;20221;-62
2023/12/23 10:08:21;;;;;;;4.63;2.83;;;13.80;69.40;;;;;;5074436;28;20235;-63
2023/12/23 10:11:37;;;;;;;5.23;2.60;;;13.90;67.50;;;;;;5074417;28;20228;-62
2023/12/23 10:14:53;;;;;;;7.37;2.77;;;14.00;67.20;;;;;;5086570;28;20696;-63
2023/12/23 10:18:11;;;;;;;4.93;2.40;;;14.10;65.80;;;;;;5080703;28;20383;-63
2023/12/23 10:21:27;;;;;;;2.27;1.87;;;14.10;65.40;;;;;;5076846;28;20197;-62
2023/12/23 10:24:43;;;;;;;5.50;2.20;;;14.30;65.50;;;;;;5078784;28;20549;-63
2023/12/23 10:28:03;;;;;;;4.87;2.13;;;14.40;65.50;;;;;;5082429;28;20238;-63
2023/12/23 10:30:34;;;;;;;4.87;2.30;;;14.50;65.50;;;;;;5078462;28;20243;-63
2023/12/23 10:33:08;;;;;;;5.87;3.40;;;14.60;65.30;;;;;;5081350;28;20201;-63
2023/12/23 10:35:46;;;;;;;2.63;2.10;;;14.70;64.80;;;;;;5082777;28;20208;-63
2023/12/23 10:38:17;;;;;;;4.67;1.93;;;14.80;63.90;;;;;;5078578;28;20204;-63
2023/12/23 10:40:49;;;;;;;3.50;2.50;;;14.80;63.70;;;;;;5080120;28;20206;-63
2023/12/23 10:43:17;;;;;;;3.20;1.83;;;14.90;63.50;;;;;;5078631;28;20252;-63
2023/12/23 10:45:48;;;;;;;6.97;2.80;;;15.00;63.30;;;;;;5083636;28;20203;-63
2023/12/23 10:48:17;;;;;;;4.20;2.57;;;15.10;62.60;;;;;;5083655;28;20198;-63
2023/12/23 10:50:47;;;;;;;2.10;1.70;;;15.10;62.20;;;;;;5074538;28;20509;-62
2023/12/23 10:53:17;;;;;;;3.00;1.70;;;15.30;62.10;;;;;;5081327;28;20202;-63
2023/12/23 10:55:46;;;;;;;2.40;1.87;;;15.40;61.60;;;;;;5082193;28;20210;-63
2023/12/23 10:58:14;;;;;;;3.87;1.83;;;15.50;61.70;;;;;;5078257;28;20273;-63
2023/12/23 11:00:42;;;;;;;5.10;2.20;;;15.50;61.70;;;;;;5082893;28;20204;-63
2023/12/23 11:03:11;;;;;;;9.37;2.40;;;15.70;61.30;;;;;;5076736;28;20651;-62
2023/12/23 11:05:41;;;;;;;5.07;2.20;;;15.70;60.10;;;;;;5078132;28;20197;-63
2023/12/23 11:08:18;;;;;;;2.97;2.00;;;15.80;60.30;;;;;;5080750;28;20194;-63
2023/12/23 11:10:47;;;;;;;3.30;1.90;;;15.90;60.20;;;;;;5083867;28;20282;-63
2023/12/23 11:13:15;;;;;;;3.73;2.00;;;16.00;60.20;;;;;;5081104;28;20198;-63
2023/12/23 11:15:42;;;;;;;2.70;2.00;;;16.10;60.00;;;;;;5079813;28;20197;-63
2023/12/23 11:18:10;;;;;;;2.93;2.47;;;16.20;59.70;;;;;;5082451;28;20197;-63
2023/12/23 11:20:40;;;;;;;5.07;3.80;;;16.30;59.80;;;;;;5081471;28;20199;-63
2023/12/23 11:23:26;;;;;;;7.07;3.93;;;16.50;59.90;;;;;;5081800;28;20635;-63
2023/12/23 11:25:54;;;;;;;5.23;3.23;;;16.60;59.60;;;;;;5091499;28;20194;-63
2023/12/23 11:28:22;;;;;;;5.93;3.43;;;16.70;59.30;;;;;;5080809;28;20194;-63
2023/12/23 11:30:54;;;;;;;5.40;2.63;;;16.80;59.40;;;;;;5084933;28;20528;-63
2023/12/23 11:33:23;;;;;;;7.30;2.50;;;16.90;59.40;;;;;;5077645;28;20519;-63
2023/12/23 11:35:52;;;;;;;4.90;2.93;;;17.00;59.10;;;;;;5078422;28;20203;-63
2023/12/23 11:38:50;;;;;;;4.97;2.47;;;17.10;58.80;;;;;;5083741;28;20502;-63
2023/12/23 11:41:19;;;;;;;4.37;2.20;;;17.20;58.60;;;;;;5079053;28;20209;-63
2023/12/23 11:43:49;;;;;;;5.47;1.90;;;17.30;58.70;;;;;;5079552;28;20299;-63
2023/12/23 11:46:22;;;;;;;3.37;2.30;;;17.40;58.70;;;;;;5080799;28;20297;-63
2023/12/23 11:48:49;;;;;;;2.63;1.70;;;17.50;58.20;;;;;;5083864;28;20325;-63
2023/12/23 11:51:16;;;;;;;3.23;2.50;;;17.60;58.10;;;;;;5077523;28;20248;-63
2023/12/23 11:53:44;;;;;;;5.07;2.00;;;17.80;57.80;;;;;;5086212;28;20216;-64
2023/12/23 11:56:11;;;;;;;4.43;2.37;;;17.90;57.70;;;;;;5083399;28;20199;-63
2023/12/23 11:58:39;;;;;;;4.70;1.90;;;17.90;57.70;;;;;;5082713;28;20200;-63
2023/12/23 12:01:06;;;;;;;2.97;1.90;;;18.00;57.60;;;;;;5086638;28;20336;-63
2023/12/23 12:03:33;;;;;;;3.43;2.07;;;18.10;57.30;;;;;;5082643;28;20211;-63
2023/12/23 12:06:02;;;;;;;4.67;1.63;;;18.20;57.10;;;;;;5081134;28;20232;-63
2023/12/23 12:08:29;;;;;;;3.10;1.77;;;18.20;57.10;;;;;;5084987;28;20641;-63
2023/12/23 12:10:57;;;;;;;2.50;1.87;;;18.30;57.50;;;;;;5083585;28;20218;-63
2023/12/23 12:13:36;;;;;;;2.83;1.80;;;18.40;57.90;;;;;;5087073;28;20345;-63
2023/12/23 12:16:04;;;;;;;3.17;2.00;;;18.40;57.60;;;;;;5081899;28;20251;-63
2023/12/23 12:18:31;;;;;;;4.13;1.93;;;18.50;57.40;;;;;;5082420;28;20660;-63
2023/12/23 12:21:00;;;;;;;2.03;1.60;;;18.60;57.20;;;;;;5082034;28;20258;-63
2023/12/23 12:23:28;;;;;;;2.47;1.80;;;18.60;56.90;;;;;;5080420;28;20215;-63
2023/12/23 12:25:57;;;;;;;6.03;2.30;;;18.70;56.70;;;;;;5081855;28;20200;-63
2023/12/23 12:28:25;;;;;;;3.13;1.87;;;18.70;56.70;;;;;;5078949;28;20200;-62
2023/12/23 12:30:53;;;;;;;2.97;2.33;;;18.70;56.70;;;;;;5082178;28;20207;-63
2023/12/23 12:33:20;;;;;;;4.87;1.97;;;18.80;56.70;;;;;;5077869;28;20196;-63
2023/12/23 12:35:48;;;;;;;9.13;4.37;;;18.80;56.80;;;;;;5086053;28;20211;-63
2023/12/23 12:38:15;;;;;;;14.37;8.00;;;18.70;57.00;;;;;;5081458;28;20200;-63
2023/12/23 12:40:51;;;;;;;14.73;5.97;;;18.80;58.10;;;;;;5088331;28;20191;-63
2023/12/23 12:43:20;;;;;;;10.27;4.47;;;18.80;59.00;;;;;;5080949;28;20521;-63
2023/12/23 12:45:48;;;;;;;4.03;2.57;;;18.80;59.40;;;;;;5081274;28;20195;-63
2023/12/23 12:48:15;;;;;;;2.77;1.93;;;18.70;59.90;;;;;;5083491;28;20304;-63
2023/12/23 12:50:43;;;;;;;3.30;1.80;;;18.70;60.10;;;;;;5078313;28;20269;-63
2023/12/23 12:53:13;;;;;;;4.33;2.20;;;18.70;59.70;;;;;;5082808;28;20201;-63
2023/12/23 12:55:41;;;;;;;2.47;1.67;;;18.70;59.30;;;;;;5080799;28;20211;-63
2023/12/23 12:58:08;;;;;;;2.70;2.20;;;18.70;59.50;;;;;;5081266;28;20530;-63
2023/12/23 13:00:35;;;;;;;7.50;3.57;;;18.80;59.60;;;;;;5084138;28;20203;-63
2023/12/23 13:03:03;;;;;;;14.33;6.40;;;18.70;59.40;;;;;;5083327;28;20209;-62